Weather at Svalbard Airport, Longyear

Public forecast

Using degrees Celsius for public forecast. Weather courtesy of forecast.io.

Current aviation weather report (METAR) for Svalbard Airport, Longyear

Retrieved 2021/03/06 09:20 UTC (0 seconds ago):

ENSB 060920Z 14021KT 9999 DRSN FEW020 M14/M20 Q1011 RMK WIND 1400FT 12025KT

Aviation forecast (TAF) for Svalbard Airport, Longyear

Forecast is more than 6 hours old.

Retrieved 2021-03-06 00:57 UTC (8 hours ago):

TAF ENSB 052300Z 0600/0624 12025KT 9999 DRSN FEW020 BKN050 TEMPO 0600/0606 14030G40KT TEMPO 0606/0609 14020G30KT BECMG 0611/0614 12015KT